»·PEaware :: AAL2466 KSNA-KPHX

AAL2466 :: KSNA-KPHX

FLIGHT INFORMATION

Flight Status: Arrived
Operator:
American Airlines
More flights by this operator :: More flights under this callsign
Pilot: James N. (18449)
Aircraft: BOEING 737-800
(B738)
More flights by this aircraft type
Origin: KSNA John Wayne-Orange Co
United States
Destination: KPHX Phoenix Sky Harbor Intl
United States
More flights between these airports :: More routes between these airports
Route: STAYY1 CNERY BLH HYDRR1
File this flight plan on PilotEdge
Remarks:
Altitude:
(Current/Filed)
37,000ft
Speed:
(Current/Filed)
457kts
Departed: 11-Jun-18 07:36 PM
Arrived: 11-Jun-18 08:34 PM
Distance/Time
Traveled:
294nm/0:58
Distance/Time
To Go:
Arrived

Flight Plot

Page will automatically refresh every two minutes.

Flight plan parsing failed; only flown route is shown


Map Options




Map Legend


Flown Route
Filed Route
Departure Airport
Arrival Airport
Navaid (VOR, NDB)
Fix

Horizontal Profiles

Position Reports

Time Latitude Longitude Heading Altitude Ground
Speed
11-Jun-18 18:57 33.680093 -117.861897 106 64ft 0kts
11-Jun-18 18:58 33.680093 -117.861897 106 64ft 0kts
11-Jun-18 18:59 33.680093 -117.861897 106 64ft 0kts
11-Jun-18 19:00 33.680093 -117.861897 106 64ft 0kts
11-Jun-18 19:01 33.680093 -117.861897 106 64ft 0kts
11-Jun-18 19:02 33.680093 -117.861897 106 64ft 0kts
11-Jun-18 19:03 33.680093 -117.861897 106 64ft 0kts
11-Jun-18 19:04 33.680093 -117.861897 106 64ft 0kts
11-Jun-18 19:05 33.680093 -117.861897 106 64ft 0kts
11-Jun-18 19:06 33.680093 -117.861897 106 64ft 0kts
11-Jun-18 19:07 33.680093 -117.861897 106 64ft 0kts
11-Jun-18 19:08 33.680093 -117.861897 106 64ft 0kts
11-Jun-18 19:09 33.680093 -117.861897 106 64ft 0kts
11-Jun-18 19:10 33.680093 -117.861897 106 64ft 0kts
11-Jun-18 19:11 33.680093 -117.861897 106 64ft 0kts
11-Jun-18 19:12 33.680093 -117.861897 106 64ft 0kts
11-Jun-18 19:13 33.680093 -117.861897 106 64ft 0kts
11-Jun-18 19:14 33.680093 -117.861897 106 64ft 0kts
11-Jun-18 19:15 33.680093 -117.861897 106 64ft 0kts
11-Jun-18 19:16 33.680093 -117.861897 106 64ft 0kts
11-Jun-18 19:17 33.680093 -117.861897 106 64ft 0kts
11-Jun-18 19:18 33.680093 -117.861897 106 64ft 0kts
11-Jun-18 19:19 33.680093 -117.861897 106 64ft 0kts
11-Jun-18 19:20 33.680093 -117.861897 106 64ft 0kts
11-Jun-18 19:21 33.680093 -117.861897 106 64ft 0kts
11-Jun-18 19:22 33.680093 -117.861897 106 64ft 0kts
11-Jun-18 19:23 33.680093 -117.861897 106 64ft 0kts
11-Jun-18 19:24 33.680093 -117.861897 106 64ft 0kts
11-Jun-18 19:25 33.680093 -117.861897 106 64ft 0kts
11-Jun-18 19:26 33.680093 -117.861897 106 64ft 0kts
11-Jun-18 19:27 33.680093 -117.861897 106 64ft 0kts
11-Jun-18 19:28 33.680474 -117.862070 213 64ft 2kts
11-Jun-18 19:29 33.681002 -117.861737 207 64ft 2kts
11-Jun-18 19:30 33.681095 -117.861680 205 64ft 0kts
11-Jun-18 19:31 33.681095 -117.861680 205 64ft 0kts
11-Jun-18 19:32 33.681095 -117.861680 205 64ft 0kts
11-Jun-18 19:33 33.680830 -117.862053 238 64ft 3kts
11-Jun-18 19:34 33.680663 -117.863015 291 64ft 0kts
11-Jun-18 19:35 33.680950 -117.863637 299 64ft 12kts
11-Jun-18 19:36 33.669228 -117.872862 208 159ft 154kts
11-Jun-18 19:37 33.622841 -117.890556 191 1975ft 221kts
11-Jun-18 19:38 33.559004 -117.889648 157 4613ft 253kts
11-Jun-18 19:39 33.502587 -117.844851 120 7655ft 260kts
11-Jun-18 19:40 33.475076 -117.763889 90 9014ft 271kts
11-Jun-18 19:41 33.489424 -117.669526 59 11276ft 301kts
11-Jun-18 19:42 33.533561 -117.582913 59 14065ft 314kts
11-Jun-18 19:43 33.571036 -117.483937 88 16025ft 358kts
11-Jun-18 19:44 33.545215 -117.367716 110 18824ft 372kts
11-Jun-18 19:45 33.508757 -117.249641 111 21484ft 385kts
11-Jun-18 19:46 33.500345 -117.119863 92 23836ft 401kts
11-Jun-18 19:47 33.498818 -117.005364 92 25668ft 412kts
11-Jun-18 19:48 33.496720 -116.884506 92 27379ft 423kts
11-Jun-18 19:49 33.495375 -116.741665 92 29160ft 436kts
11-Jun-18 19:50 33.493735 -116.594443 92 30805ft 448kts
11-Jun-18 19:51 33.491812 -116.443597 92 32352ft 459kts
11-Jun-18 19:52 33.489698 -116.292322 92 34195ft 458kts
11-Jun-18 19:53 33.487381 -116.140458 92 36003ft 452kts
11-Jun-18 19:54 33.498436 -115.991942 72 36698ft 454kts
11-Jun-18 19:55 33.539922 -115.849505 71 36689ft 454kts
11-Jun-18 19:56 33.581551 -115.707446 71 36689ft 454kts
11-Jun-18 19:57 33.616109 -115.563131 89 36718ft 449kts
11-Jun-18 19:58 33.613579 -115.413239 92 36689ft 449kts
11-Jun-18 19:59 33.609882 -115.264310 93 36712ft 449kts
11-Jun-18 20:00 33.606003 -115.114502 93 36725ft 450kts
11-Jun-18 20:01 33.602100 -114.964063 93 36726ft 453kts
11-Jun-18 20:02 33.598273 -114.813447 93 36668ft 454kts
11-Jun-18 20:03 33.579686 -114.664091 105 33718ft 454kts
11-Jun-18 20:04 33.550131 -114.517498 105 30779ft 450kts
11-Jun-18 20:05 33.521554 -114.373693 105 28053ft 439kts
11-Jun-18 20:06 33.493956 -114.234822 105 25475ft 425kts
11-Jun-18 20:07 33.467065 -114.099990 105 23028ft 410kts
11-Jun-18 20:08 33.441395 -113.972296 105 22735ft 398kts
11-Jun-18 20:09 33.415486 -113.843751 105 22734ft 397kts
11-Jun-18 20:10 33.389622 -113.715815 105 21840ft 391kts
11-Jun-18 20:11 33.364084 -113.590157 105 20835ft 386kts
11-Jun-18 20:12 33.338879 -113.466758 105 19838ft 380kts
11-Jun-18 20:13 33.317154 -113.344082 103 18836ft 375kts
11-Jun-18 20:14 33.296124 -113.222680 103 18075ft 370kts
11-Jun-18 20:15 33.279275 -113.106604 101 17132ft 338kts
11-Jun-18 20:16 33.274419 -112.992328 89 16223ft 346kts
11-Jun-18 20:17 33.277826 -112.879807 88 15318ft 324kts
11-Jun-18 20:18 33.283375 -112.773513 83 14474ft 320kts
11-Jun-18 20:19 33.293602 -112.669174 83 13634ft 316kts
11-Jun-18 20:20 33.303548 -112.565516 83 12800ft 311kts
11-Jun-18 20:21 33.313231 -112.463806 83 11976ft 308kts
11-Jun-18 20:22 33.322862 -112.362384 83 11153ft 305kts
11-Jun-18 20:23 33.331869 -112.264718 83 10363ft 286kts
11-Jun-18 20:24 33.340443 -112.171118 83 9611ft 275kts
11-Jun-18 20:25 33.347102 -112.098396 83 9035ft 257kts
11-Jun-18 20:26 33.347984 -112.039594 91 8314ft 256kts
11-Jun-18 20:27 33.348902 -111.958415 87 7470ft 243kts
11-Jun-18 20:28 33.350829 -111.886823 87 6973ft 196kts
11-Jun-18 20:29 33.386242 -111.852324 2 5561ft 187kts
11-Jun-18 20:30 33.433476 -111.857155 315 4070ft 172kts
11-Jun-18 20:31 33.440629 -111.910253 270 2578ft 162kts
11-Jun-18 20:32 33.440927 -111.964260 271 1640ft 162kts
11-Jun-18 20:33 33.440845 -112.010255 271 1142ft 76kts
11-Jun-18 20:34 33.439768 -112.015724 87 1142ft 6kts
11-Jun-18 20:35 33.439748 -112.013333 89 1142ft 8kts
11-Jun-18 20:36 33.439747 -112.010306 90 1142ft 9kts
11-Jun-18 20:37 33.439751 -112.006906 89 1142ft 10kts
11-Jun-18 20:38 33.439056 -112.003913 92 1142ft 8kts
11-Jun-18 20:39 33.439006 -112.000874 110 1142ft 5kts
11-Jun-18 20:40 33.438646 -111.999692 197 1142ft 2kts
11-Jun-18 20:41 33.438220 -111.999913 145 1142ft 0kts
11-Jun-18 20:42 33.438185 -111.999866 127 1142ft 0kts
11-Jun-18 20:43 33.438185 -111.999866 127 1142ft 0kts
11-Jun-18 20:44 33.438185 -111.999866 127 1142ft 0kts
11-Jun-18 20:45 33.438185 -111.999866 127 1142ft 0kts
11-Jun-18 20:46 33.438185 -111.999866 127 1142ft 0kts
11-Jun-18 20:47 33.438185 -111.999866 127 1142ft 0kts
11-Jun-18 20:48 33.438185 -111.999866 127 1142ft 0kts

Navigation Log

Ident Type
Flight plan parsing failed, navigation log unavailable